sensor_id;sensor_type;location;lat;lon;timestamp;P1;durP1;ratioP1;P2;durP2;ratioP2
30543;SDS011;43388;46.308;4.600;2022-11-15T00:01:39;7.22;;;6.55;;
30543;SDS011;43388;46.308;4.600;2022-11-15T00:04:05;6.28;;;5.78;;
30543;SDS011;43388;46.308;4.600;2022-11-15T00:06:32;5.63;;;5.22;;
30543;SDS011;43388;46.308;4.600;2022-11-15T00:08:58;5.95;;;5.45;;
30543;SDS011;43388;46.308;4.600;2022-11-15T00:11:24;6.40;;;4.90;;
30543;SDS011;43388;46.308;4.600;2022-11-15T00:13:50;4.75;;;4.45;;
30543;SDS011;43388;46.308;4.600;2022-11-15T00:16:16;5.85;;;4.38;;
30543;SDS011;43388;46.308;4.600;2022-11-15T00:18:42;4.65;;;4.35;;
30543;SDS011;43388;46.308;4.600;2022-11-15T00:21:11;5.32;;;4.82;;
30543;SDS011;43388;46.308;4.600;2022-11-15T00:23:38;5.65;;;4.68;;
30543;SDS011;43388;46.308;4.600;2022-11-15T00:26:04;5.50;;;5.10;;
30543;SDS011;43388;46.308;4.600;2022-11-15T00:28:30;4.85;;;4.55;;
30543;SDS011;43388;46.308;4.600;2022-11-15T00:31:09;5.55;;;5.03;;
30543;SDS011;43388;46.308;4.600;2022-11-15T00:33:36;4.70;;;4.40;;
30543;SDS011;43388;46.308;4.600;2022-11-15T00:36:03;4.45;;;4.15;;
30543;SDS011;43388;46.308;4.600;2022-11-15T00:38:33;4.85;;;4.13;;
30543;SDS011;43388;46.308;4.600;2022-11-15T00:40:59;4.50;;;4.20;;
30543;SDS011;43388;46.308;4.600;2022-11-15T00:43:25;6.78;;;4.32;;
30543;SDS011;43388;46.308;4.600;2022-11-15T00:45:51;5.38;;;4.88;;
30543;SDS011;43388;46.308;4.600;2022-11-15T00:48:17;5.38;;;4.15;;
30543;SDS011;43388;46.308;4.600;2022-11-15T00:50:43;5.90;;;5.07;;
30543;SDS011;43388;46.308;4.600;2022-11-15T00:53:09;4.82;;;4.45;;
30543;SDS011;43388;46.308;4.600;2022-11-15T00:55:35;5.25;;;4.85;;
30543;SDS011;43388;46.308;4.600;2022-11-15T00:58:01;6.22;;;5.75;;
30543;SDS011;43388;46.308;4.600;2022-11-15T01:00:28;5.20;;;4.70;;
30543;SDS011;43388;46.308;4.600;2022-11-15T01:02:54;5.32;;;4.93;;
30543;SDS011;43388;46.308;4.600;2022-11-15T01:05:20;6.80;;;6.30;;
30543;SDS011;43388;46.308;4.600;2022-11-15T01:07:46;6.78;;;6.28;;
30543;SDS011;43388;46.308;4.600;2022-11-15T01:10:12;7.15;;;6.55;;
30543;SDS011;43388;46.308;4.600;2022-11-15T01:12:38;8.75;;;6.57;;
30543;SDS011;43388;46.308;4.600;2022-11-15T01:15:04;7.32;;;6.72;;
30543;SDS011;43388;46.308;4.600;2022-11-15T01:17:30;6.18;;;5.78;;
30543;SDS011;43388;46.308;4.600;2022-11-15T01:19:56;5.80;;;5.30;;
30543;SDS011;43388;46.308;4.600;2022-11-15T01:22:22;5.18;;;4.78;;
30543;SDS011;43388;46.308;4.600;2022-11-15T01:24:49;4.32;;;4.03;;
30543;SDS011;43388;46.308;4.600;2022-11-15T01:27:15;4.55;;;4.20;;
30543;SDS011;43388;46.308;4.600;2022-11-15T01:29:42;5.32;;;4.75;;
30543;SDS011;43388;46.308;4.600;2022-11-15T01:32:08;5.00;;;4.57;;
30543;SDS011;43388;46.308;4.600;2022-11-15T01:34:34;4.35;;;4.05;;
30543;SDS011;43388;46.308;4.600;2022-11-15T01:37:00;5.05;;;4.55;;
30543;SDS011;43388;46.308;4.600;2022-11-15T01:39:26;7.90;;;4.68;;
30543;SDS011;43388;46.308;4.600;2022-11-15T01:41:52;4.75;;;4.38;;
30543;SDS011;43388;46.308;4.600;2022-11-15T01:46:57;5.25;;;4.78;;
30543;SDS011;43388;46.308;4.600;2022-11-15T01:49:23;4.97;;;4.53;;
30543;SDS011;43388;46.308;4.600;2022-11-15T01:51:50;5.70;;;5.13;;
30543;SDS011;43388;46.308;4.600;2022-11-15T01:54:17;4.93;;;4.53;;
30543;SDS011;43388;46.308;4.600;2022-11-15T01:56:45;5.22;;;4.70;;
30543;SDS011;43388;46.308;4.600;2022-11-15T01:59:12;4.93;;;4.40;;
30543;SDS011;43388;46.308;4.600;2022-11-15T02:01:39;5.40;;;5.00;;
30543;SDS011;43388;46.308;4.600;2022-11-15T02:04:07;5.18;;;4.72;;
30543;SDS011;43388;46.308;4.600;2022-11-15T02:06:34;4.32;;;3.92;;
30543;SDS011;43388;46.308;4.600;2022-11-15T02:09:01;4.57;;;4.28;;
30543;SDS011;43388;46.308;4.600;2022-11-15T02:11:27;4.72;;;4.35;;
30543;SDS011;43388;46.308;4.600;2022-11-15T02:13:54;3.97;;;3.78;;
30543;SDS011;43388;46.308;4.600;2022-11-15T02:21:33;3.55;;;3.35;;
30543;SDS011;43388;46.308;4.600;2022-11-15T02:24:11;4.43;;;4.13;;
30543;SDS011;43388;46.308;4.600;2022-11-15T02:29:28;4.38;;;4.03;;
30543;SDS011;43388;46.308;4.600;2022-11-15T02:32:10;5.05;;;4.57;;
30543;SDS011;43388;46.308;4.600;2022-11-15T02:39:46;3.67;;;3.47;;
30543;SDS011;43388;46.308;4.600;2022-11-15T02:42:16;3.60;;;3.40;;
30543;SDS011;43388;46.308;4.600;2022-11-15T02:45:03;3.72;;;3.30;;
30543;SDS011;43388;46.308;4.600;2022-11-15T02:47:31;3.40;;;3.20;;
30543;SDS011;43388;46.308;4.600;2022-11-15T02:49:59;3.50;;;3.30;;
30543;SDS011;43388;46.308;4.600;2022-11-15T02:52:26;3.38;;;3.17;;
30543;SDS011;43388;46.308;4.600;2022-11-15T02:54:56;3.00;;;2.80;;
30543;SDS011;43388;46.308;4.600;2022-11-15T02:57:45;3.40;;;3.10;;
30543;SDS011;43388;46.308;4.600;2022-11-15T03:00:09;4.07;;;3.50;;
30543;SDS011;43388;46.308;4.600;2022-11-15T03:02:42;3.47;;;3.28;;
30543;SDS011;43388;46.308;4.600;2022-11-15T03:05:19;6.75;;;3.40;;
30543;SDS011;43388;46.308;4.600;2022-11-15T03:10:26;3.75;;;3.45;;
30543;SDS011;43388;46.308;4.600;2022-11-15T03:12:57;3.90;;;3.60;;
30543;SDS011;43388;46.308;4.600;2022-11-15T03:15:32;3.17;;;2.97;;
30543;SDS011;43388;46.308;4.600;2022-11-15T03:18:00;3.35;;;3.15;;
30543;SDS011;43388;46.308;4.600;2022-11-15T03:20:27;3.80;;;3.50;;
30543;SDS011;43388;46.308;4.600;2022-11-15T03:22:55;4.90;;;4.50;;
30543;SDS011;43388;46.308;4.600;2022-11-15T03:25:22;6.15;;;5.65;;
30543;SDS011;43388;46.308;4.600;2022-11-15T03:27:51;8.23;;;7.53;;
30543;SDS011;43388;46.308;4.600;2022-11-15T03:30:18;14.07;;;9.80;;
30543;SDS011;43388;46.308;4.600;2022-11-15T03:32:46;11.10;;;9.95;;
30543;SDS011;43388;46.308;4.600;2022-11-15T03:35:14;10.38;;;9.57;;
30543;SDS011;43388;46.308;4.600;2022-11-15T03:37:43;9.88;;;9.07;;
30543;SDS011;43388;46.308;4.600;2022-11-15T03:40:10;12.48;;;9.63;;
30543;SDS011;43388;46.308;4.600;2022-11-15T03:42:38;10.02;;;9.13;;
30543;SDS011;43388;46.308;4.600;2022-11-15T03:45:11;8.77;;;7.97;;
30543;SDS011;43388;46.308;4.600;2022-11-15T03:47:38;8.55;;;7.63;;
30543;SDS011;43388;46.308;4.600;2022-11-15T03:50:13;8.45;;;7.75;;
30543;SDS011;43388;46.308;4.600;2022-11-15T03:52:40;8.85;;;7.30;;
30543;SDS011;43388;46.308;4.600;2022-11-15T03:55:08;8.35;;;7.65;;
30543;SDS011;43388;46.308;4.600;2022-11-15T03:57:36;9.13;;;8.32;;
30543;SDS011;43388;46.308;4.600;2022-11-15T04:00:03;8.65;;;7.95;;
30543;SDS011;43388;46.308;4.600;2022-11-15T04:02:29;9.02;;;8.23;;
30543;SDS011;43388;46.308;4.600;2022-11-15T04:04:55;9.02;;;8.23;;
30543;SDS011;43388;46.308;4.600;2022-11-15T04:07:21;7.88;;;7.28;;
30543;SDS011;43388;46.308;4.600;2022-11-15T04:09:47;8.48;;;7.78;;
30543;SDS011;43388;46.308;4.600;2022-11-15T04:12:31;9.35;;;8.55;;
30543;SDS011;43388;46.308;4.600;2022-11-15T04:15:02;8.55;;;7.75;;
30543;SDS011;43388;46.308;4.600;2022-11-15T04:17:32;7.55;;;6.95;;
30543;SDS011;43388;46.308;4.600;2022-11-15T04:19:58;6.80;;;6.13;;
30543;SDS011;43388;46.308;4.600;2022-11-15T04:22:43;7.33;;;6.73;;
30543;SDS011;43388;46.308;4.600;2022-11-15T04:25:27;6.82;;;6.18;;
30543;SDS011;43388;46.308;4.600;2022-11-15T04:27:54;5.90;;;5.50;;
30543;SDS011;43388;46.308;4.600;2022-11-15T04:30:20;6.22;;;5.70;;
30543;SDS011;43388;46.308;4.600;2022-11-15T04:32:46;6.38;;;5.78;;
30543;SDS011;43388;46.308;4.600;2022-11-15T04:35:12;6.50;;;6.10;;
30543;SDS011;43388;46.308;4.600;2022-11-15T04:37:38;6.30;;;5.80;;
30543;SDS011;43388;46.308;4.600;2022-11-15T04:40:04;6.03;;;5.60;;
30543;SDS011;43388;46.308;4.600;2022-11-15T04:42:30;6.93;;;6.43;;
30543;SDS011;43388;46.308;4.600;2022-11-15T04:44:56;7.10;;;5.88;;
30543;SDS011;43388;46.308;4.600;2022-11-15T04:47:22;6.03;;;5.53;;
30543;SDS011;43388;46.308;4.600;2022-11-15T04:49:48;6.85;;;6.35;;
30543;SDS011;43388;46.308;4.600;2022-11-15T04:52:14;7.05;;;6.45;;
30543;SDS011;43388;46.308;4.600;2022-11-15T04:54:40;6.55;;;6.05;;
30543;SDS011;43388;46.308;4.600;2022-11-15T04:57:07;6.65;;;6.22;;
30543;SDS011;43388;46.308;4.600;2022-11-15T04:59:33;6.85;;;6.35;;
30543;SDS011;43388;46.308;4.600;2022-11-15T05:01:59;7.97;;;7.38;;
30543;SDS011;43388;46.308;4.600;2022-11-15T05:04:25;7.65;;;6.90;;
30543;SDS011;43388;46.308;4.600;2022-11-15T05:06:51;8.82;;;7.97;;
30543;SDS011;43388;46.308;4.600;2022-11-15T05:09:18;8.77;;;7.97;;
30543;SDS011;43388;46.308;4.600;2022-11-15T05:11:44;8.13;;;7.53;;
30543;SDS011;43388;46.308;4.600;2022-11-15T05:14:11;9.02;;;8.30;;
30543;SDS011;43388;46.308;4.600;2022-11-15T05:16:37;10.05;;;9.15;;
30543;SDS011;43388;46.308;4.600;2022-11-15T05:19:04;10.95;;;10.05;;
30543;SDS011;43388;46.308;4.600;2022-11-15T05:21:30;11.27;;;10.18;;
30543;SDS011;43388;46.308;4.600;2022-11-15T05:23:56;12.40;;;11.30;;
30543;SDS011;43388;46.308;4.600;2022-11-15T05:26:22;12.88;;;11.68;;
30543;SDS011;43388;46.308;4.600;2022-11-15T05:28:52;13.57;;;12.18;;
30543;SDS011;43388;46.308;4.600;2022-11-15T05:31:19;13.57;;;12.35;;
30543;SDS011;43388;46.308;4.600;2022-11-15T05:33:45;13.23;;;12.02;;
30543;SDS011;43388;46.308;4.600;2022-11-15T05:36:53;12.98;;;11.77;;
30543;SDS011;43388;46.308;4.600;2022-11-15T05:39:00;12.85;;;11.73;;
30543;SDS011;43388;46.308;4.600;2022-11-15T05:41:30;12.45;;;11.35;;
30543;SDS011;43388;46.308;4.600;2022-11-15T05:43:57;23.50;;;11.10;;
30543;SDS011;43388;46.308;4.600;2022-11-15T05:46:23;10.60;;;9.73;;
30543;SDS011;43388;46.308;4.600;2022-11-15T05:48:50;10.20;;;9.30;;
30543;SDS011;43388;46.308;4.600;2022-11-15T05:51:17;10.95;;;9.85;;
30543;SDS011;43388;46.308;4.600;2022-11-15T05:53:45;9.25;;;8.45;;
30543;SDS011;43388;46.308;4.600;2022-11-15T05:56:11;9.50;;;8.70;;
30543;SDS011;43388;46.308;4.600;2022-11-15T05:58:38;10.02;;;9.23;;
30543;SDS011;43388;46.308;4.600;2022-11-15T06:01:04;10.48;;;9.57;;
30543;SDS011;43388;46.308;4.600;2022-11-15T06:03:30;10.15;;;9.20;;
30543;SDS011;43388;46.308;4.600;2022-11-15T06:05:56;9.65;;;8.75;;
30543;SDS011;43388;46.308;4.600;2022-11-15T06:08:22;9.15;;;8.18;;
30543;SDS011;43388;46.308;4.600;2022-11-15T06:10:48;9.80;;;8.93;;
30543;SDS011;43388;46.308;4.600;2022-11-15T06:13:14;9.50;;;8.63;;
30543;SDS011;43388;46.308;4.600;2022-11-15T06:15:40;8.43;;;7.72;;
30543;SDS011;43388;46.308;4.600;2022-11-15T06:18:06;8.48;;;7.53;;
30543;SDS011;43388;46.308;4.600;2022-11-15T06:20:32;6.70;;;6.20;;
30543;SDS011;43388;46.308;4.600;2022-11-15T06:23:02;7.13;;;6.53;;
30543;SDS011;43388;46.308;4.600;2022-11-15T06:25:29;7.15;;;6.55;;
30543;SDS011;43388;46.308;4.600;2022-11-15T06:27:55;7.60;;;6.90;;
30543;SDS011;43388;46.308;4.600;2022-11-15T06:30:22;9.68;;;6.63;;
30543;SDS011;43388;46.308;4.600;2022-11-15T06:32:49;7.40;;;6.55;;
30543;SDS011;43388;46.308;4.600;2022-11-15T06:35:15;8.07;;;7.28;;
30543;SDS011;43388;46.308;4.600;2022-11-15T06:37:41;8.75;;;7.93;;
30543;SDS011;43388;46.308;4.600;2022-11-15T06:40:07;8.00;;;6.80;;
30543;SDS011;43388;46.308;4.600;2022-11-15T06:42:34;7.97;;;7.30;;
30543;SDS011;43388;46.308;4.600;2022-11-15T06:45:00;7.75;;;7.15;;
30543;SDS011;43388;46.308;4.600;2022-11-15T06:47:26;7.40;;;6.80;;
30543;SDS011;43388;46.308;4.600;2022-11-15T06:49:52;8.10;;;7.40;;
30543;SDS011;43388;46.308;4.600;2022-11-15T06:52:18;8.27;;;7.47;;
30543;SDS011;43388;46.308;4.600;2022-11-15T06:54:44;8.15;;;7.35;;
30543;SDS011;43388;46.308;4.600;2022-11-15T06:57:10;7.80;;;7.10;;
30543;SDS011;43388;46.308;4.600;2022-11-15T06:59:36;7.18;;;6.47;;
30543;SDS011;43388;46.308;4.600;2022-11-15T07:02:03;6.63;;;6.03;;
30543;SDS011;43388;46.308;4.600;2022-11-15T07:04:29;6.88;;;6.35;;
30543;SDS011;43388;46.308;4.600;2022-11-15T07:06:56;6.72;;;6.13;;
30543;SDS011;43388;46.308;4.600;2022-11-15T07:09:22;7.07;;;6.43;;
30543;SDS011;43388;46.308;4.600;2022-11-15T07:11:48;8.57;;;6.05;;
30543;SDS011;43388;46.308;4.600;2022-11-15T07:14:14;6.70;;;6.20;;
30543;SDS011;43388;46.308;4.600;2022-11-15T07:16:40;7.18;;;6.68;;
30543;SDS011;43388;46.308;4.600;2022-11-15T07:19:06;6.85;;;6.18;;
30543;SDS011;43388;46.308;4.600;2022-11-15T07:21:32;6.80;;;6.00;;
30543;SDS011;43388;46.308;4.600;2022-11-15T07:23:58;7.65;;;6.50;;
30543;SDS011;43388;46.308;4.600;2022-11-15T07:26:24;6.95;;;6.35;;
30543;SDS011;43388;46.308;4.600;2022-11-15T07:28:50;8.40;;;6.75;;
30543;SDS011;43388;46.308;4.600;2022-11-15T07:31:16;7.20;;;6.55;;
30543;SDS011;43388;46.308;4.600;2022-11-15T07:33:42;7.80;;;7.20;;
30543;SDS011;43388;46.308;4.600;2022-11-15T07:36:08;7.70;;;7.00;;
30543;SDS011;43388;46.308;4.600;2022-11-15T07:38:34;7.20;;;6.60;;
30543;SDS011;43388;46.308;4.600;2022-11-15T07:41:02;7.95;;;7.15;;
30543;SDS011;43388;46.308;4.600;2022-11-15T07:43:28;7.40;;;6.80;;
30543;SDS011;43388;46.308;4.600;2022-11-15T07:45:54;8.05;;;7.10;;
30543;SDS011;43388;46.308;4.600;2022-11-15T07:48:21;6.85;;;6.25;;
30543;SDS011;43388;46.308;4.600;2022-11-15T07:50:47;8.43;;;6.88;;
30543;SDS011;43388;46.308;4.600;2022-11-15T07:53:13;7.35;;;6.65;;
30543;SDS011;43388;46.308;4.600;2022-11-15T07:55:39;7.45;;;6.85;;
30543;SDS011;43388;46.308;4.600;2022-11-15T07:58:10;7.07;;;6.50;;
30543;SDS011;43388;46.308;4.600;2022-11-15T08:00:36;8.63;;;7.70;;
30543;SDS011;43388;46.308;4.600;2022-11-15T08:05:32;7.15;;;6.57;;
30543;SDS011;43388;46.308;4.600;2022-11-15T08:07:58;8.18;;;7.47;;
30543;SDS011;43388;46.308;4.600;2022-11-15T08:10:25;6.28;;;5.78;;
30543;SDS011;43388;46.308;4.600;2022-11-15T08:13:10;6.53;;;6.03;;
30543;SDS011;43388;46.308;4.600;2022-11-15T08:18:03;6.40;;;5.90;;
30543;SDS011;43388;46.308;4.600;2022-11-15T08:20:30;6.00;;;5.60;;
30543;SDS011;43388;46.308;4.600;2022-11-15T08:22:56;6.05;;;5.55;;
30543;SDS011;43388;46.308;4.600;2022-11-15T08:25:23;10.00;;;5.30;;
30543;SDS011;43388;46.308;4.600;2022-11-15T08:27:55;5.90;;;5.40;;
30543;SDS011;43388;46.308;4.600;2022-11-15T08:30:21;5.72;;;5.22;;
30543;SDS011;43388;46.308;4.600;2022-11-15T08:32:48;5.10;;;4.70;;
30543;SDS011;43388;46.308;4.600;2022-11-15T08:35:14;4.80;;;4.40;;
30543;SDS011;43388;46.308;4.600;2022-11-15T08:37:40;5.35;;;4.95;;
30543;SDS011;43388;46.308;4.600;2022-11-15T08:40:06;4.60;;;4.20;;
30543;SDS011;43388;46.308;4.600;2022-11-15T08:42:32;4.07;;;3.85;;
30543;SDS011;43388;46.308;4.600;2022-11-15T08:44:59;4.43;;;4.03;;
30543;SDS011;43388;46.308;4.600;2022-11-15T08:47:25;4.20;;;3.90;;
30543;SDS011;43388;46.308;4.600;2022-11-15T08:49:51;5.07;;;4.22;;
30543;SDS011;43388;46.308;4.600;2022-11-15T08:52:17;3.67;;;3.38;;
30543;SDS011;43388;46.308;4.600;2022-11-15T08:54:43;3.92;;;3.72;;
30543;SDS011;43388;46.308;4.600;2022-11-15T08:57:09;4.65;;;3.42;;
30543;SDS011;43388;46.308;4.600;2022-11-15T08:59:36;3.90;;;3.60;;
30543;SDS011;43388;46.308;4.600;2022-11-15T09:02:02;4.18;;;3.70;;
30543;SDS011;43388;46.308;4.600;2022-11-15T09:04:28;4.00;;;3.80;;
30543;SDS011;43388;46.308;4.600;2022-11-15T09:06:54;3.50;;;3.25;;
30543;SDS011;43388;46.308;4.600;2022-11-15T09:09:20;4.25;;;3.95;;
30543;SDS011;43388;46.308;4.600;2022-11-15T09:11:46;3.97;;;3.70;;
30543;SDS011;43388;46.308;4.600;2022-11-15T09:14:13;6.03;;;4.20;;
30543;SDS011;43388;46.308;4.600;2022-11-15T09:16:39;4.78;;;4.30;;
30543;SDS011;43388;46.308;4.600;2022-11-15T09:19:05;6.13;;;4.97;;
30543;SDS011;43388;46.308;4.600;2022-11-15T09:21:31;4.60;;;4.18;;
30543;SDS011;43388;46.308;4.600;2022-11-15T09:23:57;4.85;;;4.45;;
30543;SDS011;43388;46.308;4.600;2022-11-15T09:26:24;8.68;;;4.50;;
30543;SDS011;43388;46.308;4.600;2022-11-15T09:28:50;7.00;;;3.50;;
30543;SDS011;43388;46.308;4.600;2022-11-15T09:31:16;4.47;;;4.18;;
30543;SDS011;43388;46.308;4.600;2022-11-15T09:33:45;4.47;;;4.18;;
30543;SDS011;43388;46.308;4.600;2022-11-15T09:36:11;4.15;;;3.85;;
30543;SDS011;43388;46.308;4.600;2022-11-15T09:38:37;6.18;;;4.22;;
30543;SDS011;43388;46.308;4.600;2022-11-15T09:43:58;4.63;;;4.20;;
30543;SDS011;43388;46.308;4.600;2022-11-15T09:49:06;6.95;;;4.72;;
30543;SDS011;43388;46.308;4.600;2022-11-15T09:51:34;4.53;;;4.13;;
30543;SDS011;43388;46.308;4.600;2022-11-15T09:54:43;4.32;;;3.92;;
30543;SDS011;43388;46.308;4.600;2022-11-15T09:56:49;5.35;;;3.90;;
30543;SDS011;43388;46.308;4.600;2022-11-15T10:02:14;5.82;;;4.22;;
30543;SDS011;43388;46.308;4.600;2022-11-15T10:04:45;4.78;;;4.38;;
30543;SDS011;43388;46.308;4.600;2022-11-15T10:10:11;5.47;;;4.38;;
30543;SDS011;43388;46.308;4.600;2022-11-15T10:12:42;5.55;;;4.68;;
30543;SDS011;43388;46.308;4.600;2022-11-15T10:15:11;5.63;;;4.53;;
30543;SDS011;43388;46.308;4.600;2022-11-15T10:22:52;6.93;;;4.55;;
30543;SDS011;43388;46.308;4.600;2022-11-15T10:25:30;5.28;;;4.75;;
30543;SDS011;43388;46.308;4.600;2022-11-15T10:27:59;6.82;;;4.68;;
30543;SDS011;43388;46.308;4.600;2022-11-15T10:30:31;5.93;;;5.43;;
30543;SDS011;43388;46.308;4.600;2022-11-15T10:32:57;5.78;;;5.22;;
30543;SDS011;43388;46.308;4.600;2022-11-15T10:37:49;7.78;;;5.53;;
30543;SDS011;43388;46.308;4.600;2022-11-15T10:40:23;5.88;;;5.35;;
30543;SDS011;43388;46.308;4.600;2022-11-15T10:45:33;7.50;;;5.03;;
30543;SDS011;43388;46.308;4.600;2022-11-15T10:50:55;5.47;;;5.07;;
30543;SDS011;43388;46.308;4.600;2022-11-15T10:55:48;5.53;;;5.13;;
30543;SDS011;43388;46.308;4.600;2022-11-15T10:58:22;5.70;;;5.18;;
30543;SDS011;43388;46.308;4.600;2022-11-15T11:00:52;7.00;;;5.05;;
30543;SDS011;43388;46.308;4.600;2022-11-15T11:03:29;7.15;;;6.45;;
30543;SDS011;43388;46.308;4.600;2022-11-15T11:10:57;5.65;;;5.15;;
30543;SDS011;43388;46.308;4.600;2022-11-15T11:18:33;6.00;;;4.75;;
30543;SDS011;43388;46.308;4.600;2022-11-15T11:21:04;5.72;;;5.25;;
30543;SDS011;43388;46.308;4.600;2022-11-15T11:31:31;11.65;;;7.00;;
30543;SDS011;43388;46.308;4.600;2022-11-15T11:36:51;14.10;;;7.05;;
30543;SDS011;43388;46.308;4.600;2022-11-15T11:39:24;7.75;;;6.97;;
30543;SDS011;43388;46.308;4.600;2022-11-15T11:42:00;8.20;;;6.95;;
30543;SDS011;43388;46.308;4.600;2022-11-15T11:47:21;8.55;;;7.32;;
30543;SDS011;43388;46.308;4.600;2022-11-15T11:49:59;7.78;;;6.97;;
30543;SDS011;43388;46.308;4.600;2022-11-15T11:52:27;7.75;;;7.05;;
30543;SDS011;43388;46.308;4.600;2022-11-15T11:57:41;7.30;;;6.70;;
30543;SDS011;43388;46.308;4.600;2022-11-15T12:00:24;7.93;;;6.72;;
30543;SDS011;43388;46.308;4.600;2022-11-15T12:03:02;7.45;;;6.72;;
30543;SDS011;43388;46.308;4.600;2022-11-15T12:05:43;7.15;;;6.45;;
30543;SDS011;43388;46.308;4.600;2022-11-15T12:10:41;12.50;;;6.45;;
30543;SDS011;43388;46.308;4.600;2022-11-15T12:13:13;8.02;;;6.25;;
30543;SDS011;43388;46.308;4.600;2022-11-15T12:15:42;8.75;;;6.65;;
30543;SDS011;43388;46.308;4.600;2022-11-15T12:18:11;8.27;;;6.20;;
30543;SDS011;43388;46.308;4.600;2022-11-15T12:20:39;7.57;;;6.43;;
30543;SDS011;43388;46.308;4.600;2022-11-15T12:23:16;6.88;;;6.28;;
30543;SDS011;43388;46.308;4.600;2022-11-15T12:25:51;6.20;;;5.60;;
30543;SDS011;43388;46.308;4.600;2022-11-15T12:30:54;9.25;;;6.45;;
30543;SDS011;43388;46.308;4.600;2022-11-15T12:33:29;8.90;;;6.28;;
30543;SDS011;43388;46.308;4.600;2022-11-15T12:36:00;7.65;;;6.95;;
30543;SDS011;43388;46.308;4.600;2022-11-15T12:41:13;9.85;;;7.18;;
30543;SDS011;43388;46.308;4.600;2022-11-15T12:43:40;10.63;;;7.00;;
30543;SDS011;43388;46.308;4.600;2022-11-15T12:46:10;9.90;;;8.77;;
30543;SDS011;43388;46.308;4.600;2022-11-15T12:51:03;11.23;;;8.98;;
30543;SDS011;43388;46.308;4.600;2022-11-15T12:58:58;9.18;;;8.07;;
30543;SDS011;43388;46.308;4.600;2022-11-15T13:06:42;10.25;;;8.95;;
30543;SDS011;43388;46.308;4.600;2022-11-15T13:11:54;12.65;;;10.98;;
30543;SDS011;43388;46.308;4.600;2022-11-15T13:19:57;10.43;;;9.00;;
30543;SDS011;43388;46.308;4.600;2022-11-15T13:22:24;11.63;;;8.35;;
30543;SDS011;43388;46.308;4.600;2022-11-15T13:27:35;11.10;;;7.30;;
30543;SDS011;43388;46.308;4.600;2022-11-15T13:30:01;10.85;;;7.25;;
30543;SDS011;43388;46.308;4.600;2022-11-15T13:32:28;11.68;;;6.75;;
30543;SDS011;43388;46.308;4.600;2022-11-15T13:34:54;8.32;;;6.65;;
30543;SDS011;43388;46.308;4.600;2022-11-15T13:39:47;10.77;;;6.75;;
30543;SDS011;43388;46.308;4.600;2022-11-15T13:42:17;7.95;;;6.90;;
30543;SDS011;43388;46.308;4.600;2022-11-15T13:44:57;8.57;;;7.10;;
30543;SDS011;43388;46.308;4.600;2022-11-15T13:47:25;11.45;;;7.00;;
30543;SDS011;43388;46.308;4.600;2022-11-15T13:49:56;9.25;;;7.15;;
30543;SDS011;43388;46.308;4.600;2022-11-15T13:52:22;7.72;;;7.03;;
30543;SDS011;43388;46.308;4.600;2022-11-15T13:57:26;8.73;;;7.28;;
30543;SDS011;43388;46.308;4.600;2022-11-15T13:59:59;8.02;;;7.32;;
30543;SDS011;43388;46.308;4.600;2022-11-15T14:02:29;9.40;;;7.45;;
30543;SDS011;43388;46.308;4.600;2022-11-15T14:04:56;11.05;;;7.13;;
30543;SDS011;43388;46.308;4.600;2022-11-15T14:07:27;10.68;;;7.55;;
30543;SDS011;43388;46.308;4.600;2022-11-15T14:09:57;8.73;;;7.35;;
30543;SDS011;43388;46.308;4.600;2022-11-15T14:12:25;10.50;;;6.80;;
30543;SDS011;43388;46.308;4.600;2022-11-15T14:14:51;10.85;;;7.63;;
30543;SDS011;43388;46.308;4.600;2022-11-15T14:17:36;13.02;;;11.07;;
30543;SDS011;43388;46.308;4.600;2022-11-15T14:20:18;9.70;;;8.55;;
30543;SDS011;43388;46.308;4.600;2022-11-15T14:22:51;8.85;;;6.75;;
30543;SDS011;43388;46.308;4.600;2022-11-15T14:25:24;9.57;;;7.45;;
30543;SDS011;43388;46.308;4.600;2022-11-15T14:28:10;8.40;;;7.35;;
30543;SDS011;43388;46.308;4.600;2022-11-15T14:30:38;10.48;;;7.30;;
30543;SDS011;43388;46.308;4.600;2022-11-15T14:35:50;12.73;;;7.28;;
30543;SDS011;43388;46.308;4.600;2022-11-15T14:38:16;11.85;;;6.43;;
30543;SDS011;43388;46.308;4.600;2022-11-15T14:40:42;8.05;;;6.85;;
30543;SDS011;43388;46.308;4.600;2022-11-15T14:43:09;10.77;;;7.57;;
30543;SDS011;43388;46.308;4.600;2022-11-15T14:45:36;8.35;;;7.20;;
30543;SDS011;43388;46.308;4.600;2022-11-15T14:48:02;9.30;;;7.20;;
30543;SDS011;43388;46.308;4.600;2022-11-15T14:50:28;10.18;;;6.88;;
30543;SDS011;43388;46.308;4.600;2022-11-15T14:52:54;10.40;;;7.38;;
30543;SDS011;43388;46.308;4.600;2022-11-15T14:57:46;14.70;;;7.75;;
30543;SDS011;43388;46.308;4.600;2022-11-15T15:00:13;10.20;;;7.70;;
30543;SDS011;43388;46.308;4.600;2022-11-15T15:02:40;11.07;;;8.05;;
30543;SDS011;43388;46.308;4.600;2022-11-15T15:05:26;9.23;;;8.07;;
30543;SDS011;43388;46.308;4.600;2022-11-15T15:07:52;9.77;;;8.05;;
30543;SDS011;43388;46.308;4.600;2022-11-15T15:10:18;14.40;;;8.98;;
30543;SDS011;43388;46.308;4.600;2022-11-15T15:12:44;10.27;;;8.27;;
30543;SDS011;43388;46.308;4.600;2022-11-15T15:15:17;10.80;;;8.63;;
30543;SDS011;43388;46.308;4.600;2022-11-15T15:17:46;8.90;;;7.97;;
30543;SDS011;43388;46.308;4.600;2022-11-15T15:20:12;15.10;;;9.50;;
30543;SDS011;43388;46.308;4.600;2022-11-15T15:22:38;12.13;;;8.43;;
30543;SDS011;43388;46.308;4.600;2022-11-15T15:25:15;11.32;;;8.60;;
30543;SDS011;43388;46.308;4.600;2022-11-15T15:27:44;11.32;;;8.63;;
30543;SDS011;43388;46.308;4.600;2022-11-15T15:30:10;12.30;;;9.02;;
30543;SDS011;43388;46.308;4.600;2022-11-15T15:32:36;10.77;;;7.95;;
30543;SDS011;43388;46.308;4.600;2022-11-15T15:35:02;9.50;;;8.00;;
30543;SDS011;43388;46.308;4.600;2022-11-15T15:37:28;9.40;;;7.28;;
30543;SDS011;43388;46.308;4.600;2022-11-15T15:39:57;11.52;;;8.00;;
30543;SDS011;43388;46.308;4.600;2022-11-15T15:42:23;10.82;;;7.65;;
30543;SDS011;43388;46.308;4.600;2022-11-15T15:44:50;11.82;;;8.10;;
30543;SDS011;43388;46.308;4.600;2022-11-15T15:47:19;9.25;;;7.03;;
30543;SDS011;43388;46.308;4.600;2022-11-15T15:49:46;10.13;;;7.68;;
30543;SDS011;43388;46.308;4.600;2022-11-15T15:52:12;8.13;;;7.20;;
30543;SDS011;43388;46.308;4.600;2022-11-15T15:54:39;12.23;;;7.18;;
30543;SDS011;43388;46.308;4.600;2022-11-15T15:57:05;9.48;;;8.50;;
30543;SDS011;43388;46.308;4.600;2022-11-15T15:59:31;11.85;;;8.10;;
30543;SDS011;43388;46.308;4.600;2022-11-15T16:01:57;9.45;;;7.00;;
30543;SDS011;43388;46.308;4.600;2022-11-15T16:04:23;7.85;;;6.75;;
30543;SDS011;43388;46.308;4.600;2022-11-15T16:06:50;11.15;;;7.80;;
30543;SDS011;43388;46.308;4.600;2022-11-15T16:09:19;9.48;;;7.72;;
30543;SDS011;43388;46.308;4.600;2022-11-15T16:12:08;10.02;;;8.18;;
30543;SDS011;43388;46.308;4.600;2022-11-15T16:14:36;10.02;;;7.30;;
30543;SDS011;43388;46.308;4.600;2022-11-15T16:17:02;9.38;;;6.22;;
30543;SDS011;43388;46.308;4.600;2022-11-15T16:19:29;7.85;;;7.05;;
30543;SDS011;43388;46.308;4.600;2022-11-15T16:21:55;9.05;;;6.78;;
30543;SDS011;43388;46.308;4.600;2022-11-15T16:24:21;8.18;;;7.32;;
30543;SDS011;43388;46.308;4.600;2022-11-15T16:26:47;8.88;;;7.78;;
30543;SDS011;43388;46.308;4.600;2022-11-15T16:29:14;10.93;;;6.72;;
30543;SDS011;43388;46.308;4.600;2022-11-15T16:31:40;7.40;;;6.65;;
30543;SDS011;43388;46.308;4.600;2022-11-15T16:34:06;8.75;;;6.78;;
30543;SDS011;43388;46.308;4.600;2022-11-15T16:36:33;9.57;;;6.63;;
30543;SDS011;43388;46.308;4.600;2022-11-15T16:38:59;7.68;;;6.32;;
30543;SDS011;43388;46.308;4.600;2022-11-15T16:41:29;8.98;;;6.72;;
30543;SDS011;43388;46.308;4.600;2022-11-15T16:43:55;7.95;;;6.72;;
30543;SDS011;43388;46.308;4.600;2022-11-15T16:48:47;8.65;;;6.63;;
30543;SDS011;43388;46.308;4.600;2022-11-15T16:51:13;8.10;;;7.00;;
30543;SDS011;43388;46.308;4.600;2022-11-15T16:53:40;10.13;;;6.25;;